createdAt,value
2022-08-24T00:13:55.633Z,16.74
2022-08-24T00:28:58.666Z,16.64
2022-08-24T00:44:02.747Z,16.32
2022-08-24T00:59:07.920Z,16.08
2022-08-24T01:14:10.526Z,15.87
2022-08-24T01:29:21.293Z,15.71
2022-08-24T01:44:27.201Z,16.01
2022-08-24T01:59:29.992Z,15.92
2022-08-24T02:14:34.227Z,15.93
2022-08-24T02:29:38.145Z,16.18
2022-08-24T02:44:40.616Z,16.09
2022-08-24T02:59:42.945Z,15.84
2022-08-24T03:14:45.359Z,15.23
2022-08-24T03:29:47.780Z,15.01
2022-08-24T03:44:52.438Z,15.01
2022-08-24T03:59:54.873Z,14.51
2022-08-24T04:14:57.241Z,14.32
2022-08-24T04:30:02.538Z,14.07
2022-08-24T04:45:11.990Z,15.18
2022-08-24T05:00:14.533Z,15.99
2022-08-24T05:15:19.461Z,17.13
2022-08-24T05:30:21.800Z,19.72
2022-08-24T05:45:24.451Z,20.97
2022-08-24T06:00:27.370Z,21.96
2022-08-24T06:15:29.748Z,22.23
2022-08-24T06:30:32.813Z,21.94
2022-08-24T06:45:48.601Z,22.69
2022-08-24T07:00:57.028Z,24.52
2022-08-24T07:16:00.725Z,23.88
2022-08-24T07:31:03.905Z,25.03
2022-08-24T07:46:13.499Z,25.75
2022-08-24T08:01:17.296Z,26.43
2022-08-24T08:16:21.853Z,26.80
2022-08-24T08:31:24.364Z,26.94
2022-08-24T08:47:06.879Z,27.48
2022-08-24T09:02:20.245Z,26.32
2022-08-24T09:18:02.436Z,27.22
2022-08-24T09:33:21.856Z,27.35
2022-08-24T09:48:39.162Z,28.06
2022-08-24T10:04:13.260Z,27.94
2022-08-24T10:19:42.992Z,27.88
2022-08-24T10:35:04.180Z,28.81
2022-08-24T10:50:20.486Z,28.24
2022-08-24T11:05:29.757Z,27.80
2022-08-24T11:20:34.132Z,28.44
2022-08-24T11:35:39.557Z,29.14
2022-08-24T11:50:48.709Z,28.76
2022-08-24T12:06:11.041Z,28.63
2022-08-24T12:21:16.714Z,28.58
2022-08-24T12:36:44.903Z,28.74
2022-08-24T12:52:19.231Z,28.73
2022-08-24T13:07:21.307Z,27.71
2022-08-24T13:22:37.385Z,27.02
2022-08-24T13:37:39.731Z,27.22
2022-08-24T13:53:03.814Z,27.13
2022-08-24T14:08:26.819Z,26.65
2022-08-24T14:23:52.458Z,26.75
2022-08-24T14:38:58.004Z,26.76
2022-08-24T14:54:25.322Z,27.14
2022-08-24T15:09:36.712Z,26.24
2022-08-24T15:24:51.355Z,26.72
2022-08-24T15:39:53.646Z,26.77
2022-08-24T15:54:58.074Z,25.30
2022-08-24T16:10:18.481Z,25.79
2022-08-24T16:25:39.840Z,25.56
2022-08-24T16:40:44.632Z,25.27
2022-08-24T16:55:52.897Z,25.05
2022-08-24T17:10:55.383Z,24.68
2022-08-24T17:25:57.754Z,24.40
2022-08-24T17:41:01.040Z,23.89
2022-08-24T17:56:04.465Z,23.29
2022-08-24T18:11:07.002Z,22.98
2022-08-24T18:26:09.337Z,22.76
2022-08-24T18:41:11.828Z,22.57
2022-08-24T18:56:14.103Z,22.28
2022-08-24T19:11:19.388Z,22.13
2022-08-24T19:26:21.620Z,22.13
2022-08-24T19:41:23.881Z,22.08
2022-08-24T19:56:38.889Z,21.63
2022-08-24T20:11:41.143Z,21.23
2022-08-24T20:26:43.726Z,21.12
2022-08-24T20:41:46.018Z,21.12
2022-08-24T20:56:48.711Z,20.92
2022-08-24T21:11:51.053Z,20.67
2022-08-24T21:26:53.616Z,20.32
2022-08-24T21:41:56.207Z,20.31
2022-08-24T21:56:58.441Z,19.85
2022-08-24T22:12:00.686Z,18.80
2022-08-24T22:27:02.934Z,19.43
2022-08-24T22:42:05.420Z,18.99
2022-08-24T22:57:07.823Z,19.01
2022-08-24T23:12:10.465Z,19.09
2022-08-24T23:27:13.178Z,18.99
2022-08-24T23:42:15.776Z,19.11
2022-08-24T23:57:18.012Z,18.01
